sensor_id;sensor_type;location;lat;lon;timestamp;P1;durP1;ratioP1;P2;durP2;ratioP2
11911;SDS011;6016;41.928;25.556;2023-03-11T00:01:40;9.40;;;3.20;;
11911;SDS011;6016;41.928;25.556;2023-03-11T00:04:09;8.00;;;3.00;;
11911;SDS011;6016;41.928;25.556;2023-03-11T00:06:36;8.68;;;2.97;;
11911;SDS011;6016;41.928;25.556;2023-03-11T00:09:02;4.68;;;2.97;;
11911;SDS011;6016;41.928;25.556;2023-03-11T00:11:30;9.02;;;2.97;;
11911;SDS011;6016;41.928;25.556;2023-03-11T00:13:57;9.52;;;3.63;;
11911;SDS011;6016;41.928;25.556;2023-03-11T00:16:23;9.85;;;2.80;;
11911;SDS011;6016;41.928;25.556;2023-03-11T00:18:50;9.10;;;3.00;;
11911;SDS011;6016;41.928;25.556;2023-03-11T00:21:19;6.90;;;2.80;;
11911;SDS011;6016;41.928;25.556;2023-03-11T00:23:46;9.20;;;4.20;;
11911;SDS011;6016;41.928;25.556;2023-03-11T00:26:13;8.88;;;2.50;;
11911;SDS011;6016;41.928;25.556;2023-03-11T00:28:39;7.28;;;2.33;;
11911;SDS011;6016;41.928;25.556;2023-03-11T00:31:06;10.63;;;2.55;;
11911;SDS011;6016;41.928;25.556;2023-03-11T00:33:33;5.45;;;2.45;;
11911;SDS011;6016;41.928;25.556;2023-03-11T00:36:00;8.55;;;2.88;;
11911;SDS011;6016;41.928;25.556;2023-03-11T00:38:28;8.57;;;2.65;;
11911;SDS011;6016;41.928;25.556;2023-03-11T00:40:55;10.90;;;3.40;;
11911;SDS011;6016;41.928;25.556;2023-03-11T00:43:21;8.43;;;2.80;;
11911;SDS011;6016;41.928;25.556;2023-03-11T00:45:49;7.97;;;3.25;;
11911;SDS011;6016;41.928;25.556;2023-03-11T00:48:15;6.57;;;3.08;;
11911;SDS011;6016;41.928;25.556;2023-03-11T00:50:42;7.60;;;3.15;;
11911;SDS011;6016;41.928;25.556;2023-03-11T00:53:09;7.72;;;3.10;;
11911;SDS011;6016;41.928;25.556;2023-03-11T00:55:38;10.02;;;3.03;;
11911;SDS011;6016;41.928;25.556;2023-03-11T00:58:05;8.70;;;3.17;;
11911;SDS011;6016;41.928;25.556;2023-03-11T01:00:33;9.82;;;3.05;;
11911;SDS011;6016;41.928;25.556;2023-03-11T01:03:00;10.43;;;3.63;;
11911;SDS011;6016;41.928;25.556;2023-03-11T01:05:27;10.90;;;3.63;;
11911;SDS011;6016;41.928;25.556;2023-03-11T01:07:55;13.55;;;4.47;;
11911;SDS011;6016;41.928;25.556;2023-03-11T01:10:22;10.43;;;3.78;;
11911;SDS011;6016;41.928;25.556;2023-03-11T01:12:51;9.77;;;3.72;;
11911;SDS011;6016;41.928;25.556;2023-03-11T01:15:19;10.32;;;3.35;;
11911;SDS011;6016;41.928;25.556;2023-03-11T01:17:48;10.07;;;3.28;;
11911;SDS011;6016;41.928;25.556;2023-03-11T01:20:15;8.45;;;3.47;;
11911;SDS011;6016;41.928;25.556;2023-03-11T01:22:42;8.02;;;3.15;;
11911;SDS011;6016;41.928;25.556;2023-03-11T01:25:10;12.32;;;3.58;;
11911;SDS011;6016;41.928;25.556;2023-03-11T01:27:38;10.73;;;3.63;;
11911;SDS011;6016;41.928;25.556;2023-03-11T01:30:07;11.25;;;3.95;;
11911;SDS011;6016;41.928;25.556;2023-03-11T01:35:05;11.18;;;3.65;;
11911;SDS011;6016;41.928;25.556;2023-03-11T01:37:32;14.32;;;4.07;;
11911;SDS011;6016;41.928;25.556;2023-03-11T01:39:59;14.10;;;4.20;;
11911;SDS011;6016;41.928;25.556;2023-03-11T01:42:26;6.38;;;3.65;;
11911;SDS011;6016;41.928;25.556;2023-03-11T01:44:53;11.73;;;3.70;;
11911;SDS011;6016;41.928;25.556;2023-03-11T01:50:07;11.88;;;4.03;;
11911;SDS011;6016;41.928;25.556;2023-03-11T01:52:38;10.30;;;4.20;;
11911;SDS011;6016;41.928;25.556;2023-03-11T01:55:07;12.85;;;3.67;;
11911;SDS011;6016;41.928;25.556;2023-03-11T01:57:36;7.20;;;3.35;;
11911;SDS011;6016;41.928;25.556;2023-03-11T02:00:07;9.55;;;3.13;;
11911;SDS011;6016;41.928;25.556;2023-03-11T02:05:09;10.27;;;3.10;;
11911;SDS011;6016;41.928;25.556;2023-03-11T02:07:36;10.07;;;3.03;;
11911;SDS011;6016;41.928;25.556;2023-03-11T02:10:04;6.50;;;3.13;;
11911;SDS011;6016;41.928;25.556;2023-03-11T02:12:32;6.85;;;2.85;;
11911;SDS011;6016;41.928;25.556;2023-03-11T02:15:02;6.72;;;2.70;;
11911;SDS011;6016;41.928;25.556;2023-03-11T02:17:31;6.20;;;2.72;;
11911;SDS011;6016;41.928;25.556;2023-03-11T02:20:03;10.48;;;3.30;;
11911;SDS011;6016;41.928;25.556;2023-03-11T02:22:40;9.40;;;3.42;;
11911;SDS011;6016;41.928;25.556;2023-03-11T02:25:10;9.55;;;3.92;;
11911;SDS011;6016;41.928;25.556;2023-03-11T02:27:48;8.60;;;2.85;;
11911;SDS011;6016;41.928;25.556;2023-03-11T02:30:17;7.88;;;3.50;;
11911;SDS011;6016;41.928;25.556;2023-03-11T02:32:45;9.02;;;3.20;;
11911;SDS011;6016;41.928;25.556;2023-03-11T02:35:13;7.97;;;3.63;;
11911;SDS011;6016;41.928;25.556;2023-03-11T02:37:44;10.98;;;3.50;;
11911;SDS011;6016;41.928;25.556;2023-03-11T02:43:02;9.75;;;3.40;;
11911;SDS011;6016;41.928;25.556;2023-03-11T02:45:32;12.30;;;4.75;;
11911;SDS011;6016;41.928;25.556;2023-03-11T02:48:00;12.05;;;3.63;;
11911;SDS011;6016;41.928;25.556;2023-03-11T02:50:28;12.13;;;4.15;;
11911;SDS011;6016;41.928;25.556;2023-03-11T02:52:58;8.77;;;3.80;;
11911;SDS011;6016;41.928;25.556;2023-03-11T02:55:25;10.40;;;4.57;;
11911;SDS011;6016;41.928;25.556;2023-03-11T02:57:52;12.07;;;3.97;;
11911;SDS011;6016;41.928;25.556;2023-03-11T03:00:20;11.77;;;3.88;;
11911;SDS011;6016;41.928;25.556;2023-03-11T03:02:47;11.23;;;4.57;;
11911;SDS011;6016;41.928;25.556;2023-03-11T03:05:16;12.05;;;3.90;;
11911;SDS011;6016;41.928;25.556;2023-03-11T03:07:44;12.88;;;4.15;;
11911;SDS011;6016;41.928;25.556;2023-03-11T03:10:12;17.65;;;4.82;;
11911;SDS011;6016;41.928;25.556;2023-03-11T03:12:39;9.98;;;3.90;;
11911;SDS011;6016;41.928;25.556;2023-03-11T03:15:06;12.75;;;4.60;;
11911;SDS011;6016;41.928;25.556;2023-03-11T03:17:35;9.20;;;4.45;;
11911;SDS011;6016;41.928;25.556;2023-03-11T03:20:03;7.88;;;4.32;;
11911;SDS011;6016;41.928;25.556;2023-03-11T03:22:35;11.32;;;4.50;;
11911;SDS011;6016;41.928;25.556;2023-03-11T03:25:02;10.00;;;4.43;;
11911;SDS011;6016;41.928;25.556;2023-03-11T03:27:30;13.25;;;3.95;;
11911;SDS011;6016;41.928;25.556;2023-03-11T03:29:58;15.80;;;4.93;;
11911;SDS011;6016;41.928;25.556;2023-03-11T03:32:25;12.48;;;4.40;;
11911;SDS011;6016;41.928;25.556;2023-03-11T03:34:53;13.27;;;4.75;;
11911;SDS011;6016;41.928;25.556;2023-03-11T03:37:23;9.20;;;4.10;;
11911;SDS011;6016;41.928;25.556;2023-03-11T03:39:51;12.48;;;4.10;;
11911;SDS011;6016;41.928;25.556;2023-03-11T03:42:18;10.65;;;4.18;;
11911;SDS011;6016;41.928;25.556;2023-03-11T03:44:45;8.60;;;3.50;;
11911;SDS011;6016;41.928;25.556;2023-03-11T03:47:12;13.38;;;4.10;;
11911;SDS011;6016;41.928;25.556;2023-03-11T03:49:38;12.25;;;4.25;;
11911;SDS011;6016;41.928;25.556;2023-03-11T03:52:07;14.48;;;5.10;;
11911;SDS011;6016;41.928;25.556;2023-03-11T03:54:34;15.45;;;5.18;;
11911;SDS011;6016;41.928;25.556;2023-03-11T03:57:01;12.38;;;5.10;;
11911;SDS011;6016;41.928;25.556;2023-03-11T03:59:29;11.40;;;4.78;;
11911;SDS011;6016;41.928;25.556;2023-03-11T04:01:56;8.55;;;4.50;;
11911;SDS011;6016;41.928;25.556;2023-03-11T04:04:23;15.38;;;5.10;;
11911;SDS011;6016;41.928;25.556;2023-03-11T04:06:50;12.93;;;4.53;;
11911;SDS011;6016;41.928;25.556;2023-03-11T04:09:18;15.15;;;4.88;;
11911;SDS011;6016;41.928;25.556;2023-03-11T04:11:45;14.77;;;5.25;;
11911;SDS011;6016;41.928;25.556;2023-03-11T04:14:13;11.88;;;4.78;;
11911;SDS011;6016;41.928;25.556;2023-03-11T04:16:39;17.13;;;4.75;;
11911;SDS011;6016;41.928;25.556;2023-03-11T04:19:06;13.23;;;4.93;;
11911;SDS011;6016;41.928;25.556;2023-03-11T04:21:33;12.10;;;5.03;;
11911;SDS011;6016;41.928;25.556;2023-03-11T04:24:00;15.43;;;5.43;;
11911;SDS011;6016;41.928;25.556;2023-03-11T04:26:29;17.83;;;5.63;;
11911;SDS011;6016;41.928;25.556;2023-03-11T04:28:56;13.98;;;4.97;;
11911;SDS011;6016;41.928;25.556;2023-03-11T04:31:23;13.75;;;6.00;;
11911;SDS011;6016;41.928;25.556;2023-03-11T04:33:49;13.23;;;5.63;;
11911;SDS011;6016;41.928;25.556;2023-03-11T04:36:16;9.75;;;4.93;;
11911;SDS011;6016;41.928;25.556;2023-03-11T04:38:43;14.60;;;4.65;;
11911;SDS011;6016;41.928;25.556;2023-03-11T04:41:10;14.45;;;6.18;;
11911;SDS011;6016;41.928;25.556;2023-03-11T04:43:39;11.18;;;4.90;;
11911;SDS011;6016;41.928;25.556;2023-03-11T04:46:05;12.43;;;5.28;;
11911;SDS011;6016;41.928;25.556;2023-03-11T04:48:32;19.73;;;6.97;;
11911;SDS011;6016;41.928;25.556;2023-03-11T04:50:59;17.15;;;5.07;;
11911;SDS011;6016;41.928;25.556;2023-03-11T04:53:26;10.80;;;4.88;;
11911;SDS011;6016;41.928;25.556;2023-03-11T04:55:53;14.07;;;5.50;;
11911;SDS011;6016;41.928;25.556;2023-03-11T04:58:19;14.60;;;4.63;;
11911;SDS011;6016;41.928;25.556;2023-03-11T05:00:48;11.82;;;4.63;;
11911;SDS011;6016;41.928;25.556;2023-03-11T05:03:15;10.20;;;4.43;;
11911;SDS011;6016;41.928;25.556;2023-03-11T05:05:41;15.50;;;7.03;;
11911;SDS011;6016;41.928;25.556;2023-03-11T05:08:09;14.68;;;5.10;;
11911;SDS011;6016;41.928;25.556;2023-03-11T05:10:38;14.10;;;5.03;;
11911;SDS011;6016;41.928;25.556;2023-03-11T05:13:06;14.00;;;4.40;;
11911;SDS011;6016;41.928;25.556;2023-03-11T05:15:32;11.63;;;4.15;;
11911;SDS011;6016;41.928;25.556;2023-03-11T05:18:02;7.70;;;3.40;;
11911;SDS011;6016;41.928;25.556;2023-03-11T05:20:29;8.50;;;3.03;;
11911;SDS011;6016;41.928;25.556;2023-03-11T05:22:56;6.05;;;2.17;;
11911;SDS011;6016;41.928;25.556;2023-03-11T05:25:25;4.18;;;1.80;;
11911;SDS011;6016;41.928;25.556;2023-03-11T05:27:52;2.95;;;1.17;;
11911;SDS011;6016;41.928;25.556;2023-03-11T05:30:20;2.58;;;1.77;;
11911;SDS011;6016;41.928;25.556;2023-03-11T05:32:47;3.45;;;1.95;;
11911;SDS011;6016;41.928;25.556;2023-03-11T05:35:16;3.67;;;2.20;;
11911;SDS011;6016;41.928;25.556;2023-03-11T05:37:43;4.18;;;2.30;;
11911;SDS011;6016;41.928;25.556;2023-03-11T05:40:13;6.15;;;2.35;;
11911;SDS011;6016;41.928;25.556;2023-03-11T05:42:41;4.50;;;2.47;;
11911;SDS011;6016;41.928;25.556;2023-03-11T05:45:08;8.18;;;2.80;;
11911;SDS011;6016;41.928;25.556;2023-03-11T05:47:36;4.97;;;2.80;;
11911;SDS011;6016;41.928;25.556;2023-03-11T05:50:03;5.93;;;3.10;;
11911;SDS011;6016;41.928;25.556;2023-03-11T05:52:31;5.28;;;3.30;;
11911;SDS011;6016;41.928;25.556;2023-03-11T05:54:58;9.25;;;5.32;;
11911;SDS011;6016;41.928;25.556;2023-03-11T05:57:25;7.18;;;3.47;;
11911;SDS011;6016;41.928;25.556;2023-03-11T05:59:54;13.63;;;7.25;;
11911;SDS011;6016;41.928;25.556;2023-03-11T06:02:21;10.05;;;5.00;;
11911;SDS011;6016;41.928;25.556;2023-03-11T06:04:48;11.10;;;5.32;;
11911;SDS011;6016;41.928;25.556;2023-03-11T06:07:15;11.13;;;6.32;;
11911;SDS011;6016;41.928;25.556;2023-03-11T06:09:43;7.72;;;4.70;;
11911;SDS011;6016;41.928;25.556;2023-03-11T06:12:10;9.18;;;5.03;;
11911;SDS011;6016;41.928;25.556;2023-03-11T06:14:37;7.28;;;4.13;;
11911;SDS011;6016;41.928;25.556;2023-03-11T06:17:05;9.00;;;4.10;;
11911;SDS011;6016;41.928;25.556;2023-03-11T06:19:32;9.15;;;4.57;;
11911;SDS011;6016;41.928;25.556;2023-03-11T06:21:59;9.30;;;4.35;;
11911;SDS011;6016;41.928;25.556;2023-03-11T06:24:25;6.78;;;3.65;;
11911;SDS011;6016;41.928;25.556;2023-03-11T06:26:54;22.42;;;10.82;;
11911;SDS011;6016;41.928;25.556;2023-03-11T06:29:20;5.03;;;3.17;;
11911;SDS011;6016;41.928;25.556;2023-03-11T06:31:50;5.63;;;3.05;;
11911;SDS011;6016;41.928;25.556;2023-03-11T06:34:17;6.85;;;3.50;;
11911;SDS011;6016;41.928;25.556;2023-03-11T06:36:44;7.05;;;4.40;;
11911;SDS011;6016;41.928;25.556;2023-03-11T06:39:12;5.53;;;3.38;;
11911;SDS011;6016;41.928;25.556;2023-03-11T06:41:39;5.72;;;3.15;;
11911;SDS011;6016;41.928;25.556;2023-03-11T06:44:07;4.28;;;2.90;;
11911;SDS011;6016;41.928;25.556;2023-03-11T06:46:35;5.18;;;2.70;;
11911;SDS011;6016;41.928;25.556;2023-03-11T06:49:02;5.32;;;3.00;;
11911;SDS011;6016;41.928;25.556;2023-03-11T06:51:29;6.95;;;3.22;;
11911;SDS011;6016;41.928;25.556;2023-03-11T06:53:55;5.82;;;2.90;;
11911;SDS011;6016;41.928;25.556;2023-03-11T06:56:22;5.78;;;3.47;;
11911;SDS011;6016;41.928;25.556;2023-03-11T06:58:49;11.10;;;6.28;;
11911;SDS011;6016;41.928;25.556;2023-03-11T07:01:19;19.30;;;8.38;;
11911;SDS011;6016;41.928;25.556;2023-03-11T07:03:48;10.10;;;5.53;;
11911;SDS011;6016;41.928;25.556;2023-03-11T07:06:17;8.50;;;5.10;;
11911;SDS011;6016;41.928;25.556;2023-03-11T07:08:45;6.30;;;3.97;;
11911;SDS011;6016;41.928;25.556;2023-03-11T07:11:13;9.50;;;5.93;;
11911;SDS011;6016;41.928;25.556;2023-03-11T07:13:42;3.78;;;2.63;;
11911;SDS011;6016;41.928;25.556;2023-03-11T07:16:10;8.32;;;5.40;;
11911;SDS011;6016;41.928;25.556;2023-03-11T07:18:41;7.55;;;4.47;;
11911;SDS011;6016;41.928;25.556;2023-03-11T07:21:08;8.98;;;5.13;;
11911;SDS011;6016;41.928;25.556;2023-03-11T07:23:37;5.15;;;3.47;;
11911;SDS011;6016;41.928;25.556;2023-03-11T07:26:06;5.55;;;2.90;;
11911;SDS011;6016;41.928;25.556;2023-03-11T07:28:34;6.05;;;4.40;;
11911;SDS011;6016;41.928;25.556;2023-03-11T07:31:05;4.25;;;2.88;;
11911;SDS011;6016;41.928;25.556;2023-03-11T07:33:32;3.47;;;2.33;;
11911;SDS011;6016;41.928;25.556;2023-03-11T07:36:03;4.35;;;2.38;;
11911;SDS011;6016;41.928;25.556;2023-03-11T07:38:30;3.67;;;2.08;;
11911;SDS011;6016;41.928;25.556;2023-03-11T07:40:57;6.00;;;3.45;;
11911;SDS011;6016;41.928;25.556;2023-03-11T07:43:25;4.15;;;3.05;;
11911;SDS011;6016;41.928;25.556;2023-03-11T07:45:52;4.93;;;2.90;;
11911;SDS011;6016;41.928;25.556;2023-03-11T07:48:28;4.15;;;2.22;;
11911;SDS011;6016;41.928;25.556;2023-03-11T07:50:58;8.35;;;2.55;;
11911;SDS011;6016;41.928;25.556;2023-03-11T07:55:54;5.65;;;2.17;;
11911;SDS011;6016;41.928;25.556;2023-03-11T07:58:21;3.20;;;1.58;;
11911;SDS011;6016;41.928;25.556;2023-03-11T08:00:48;3.10;;;1.83;;
11911;SDS011;6016;41.928;25.556;2023-03-11T08:03:15;4.55;;;2.08;;
11911;SDS011;6016;41.928;25.556;2023-03-11T08:05:42;4.72;;;2.35;;
11911;SDS011;6016;41.928;25.556;2023-03-11T08:08:10;5.40;;;2.10;;
11911;SDS011;6016;41.928;25.556;2023-03-11T08:10:37;2.75;;;2.00;;
11911;SDS011;6016;41.928;25.556;2023-03-11T08:13:04;3.83;;;1.80;;
11911;SDS011;6016;41.928;25.556;2023-03-11T08:15:31;3.15;;;1.83;;
11911;SDS011;6016;41.928;25.556;2023-03-11T08:17:58;2.38;;;1.90;;
11911;SDS011;6016;41.928;25.556;2023-03-11T08:20:25;4.00;;;1.73;;
11911;SDS011;6016;41.928;25.556;2023-03-11T08:22:51;2.40;;;1.80;;
11911;SDS011;6016;41.928;25.556;2023-03-11T08:25:20;2.83;;;1.70;;
11911;SDS011;6016;41.928;25.556;2023-03-11T08:27:47;2.42;;;1.95;;
11911;SDS011;6016;41.928;25.556;2023-03-11T08:30:14;7.40;;;4.25;;
11911;SDS011;6016;41.928;25.556;2023-03-11T08:32:41;4.28;;;1.70;;
11911;SDS011;6016;41.928;25.556;2023-03-11T08:35:08;2.20;;;1.50;;
11911;SDS011;6016;41.928;25.556;2023-03-11T08:37:35;3.33;;;1.65;;
11911;SDS011;6016;41.928;25.556;2023-03-11T08:40:03;1.40;;;1.30;;
11911;SDS011;6016;41.928;25.556;2023-03-11T08:42:32;2.60;;;1.58;;
11911;SDS011;6016;41.928;25.556;2023-03-11T08:44:58;1.70;;;1.52;;
11911;SDS011;6016;41.928;25.556;2023-03-11T08:47:25;3.88;;;1.90;;
11911;SDS011;6016;41.928;25.556;2023-03-11T08:49:52;4.22;;;3.13;;
11911;SDS011;6016;41.928;25.556;2023-03-11T08:52:19;2.17;;;1.52;;
11911;SDS011;6016;41.928;25.556;2023-03-11T08:54:46;3.38;;;1.90;;
11911;SDS011;6016;41.928;25.556;2023-03-11T08:57:12;1.90;;;1.50;;
11911;SDS011;6016;41.928;25.556;2023-03-11T08:59:40;2.55;;;1.52;;
11911;SDS011;6016;41.928;25.556;2023-03-11T09:02:08;1.65;;;1.30;;
11911;SDS011;6016;41.928;25.556;2023-03-11T09:04:35;1.77;;;1.20;;
11911;SDS011;6016;41.928;25.556;2023-03-11T09:07:02;2.90;;;1.40;;
11911;SDS011;6016;41.928;25.556;2023-03-11T09:09:29;1.40;;;1.00;;
11911;SDS011;6016;41.928;25.556;2023-03-11T09:11:56;1.73;;;1.10;;
11911;SDS011;6016;41.928;25.556;2023-03-11T09:14:22;1.33;;;1.02;;
11911;SDS011;6016;41.928;25.556;2023-03-11T09:16:50;4.22;;;1.40;;
11911;SDS011;6016;41.928;25.556;2023-03-11T09:19:17;2.42;;;1.20;;
11911;SDS011;6016;41.928;25.556;2023-03-11T09:21:44;4.93;;;1.10;;
11911;SDS011;6016;41.928;25.556;2023-03-11T09:24:11;1.80;;;1.15;;
11911;SDS011;6016;41.928;25.556;2023-03-11T09:26:38;1.35;;;1.00;;
11911;SDS011;6016;41.928;25.556;2023-03-11T09:29:05;2.95;;;1.13;;
11911;SDS011;6016;41.928;25.556;2023-03-11T09:31:31;1.48;;;1.10;;
11911;SDS011;6016;41.928;25.556;2023-03-11T09:34:01;1.75;;;1.00;;
11911;SDS011;6016;41.928;25.556;2023-03-11T09:36:27;1.80;;;1.30;;
11911;SDS011;6016;41.928;25.556;2023-03-11T09:38:54;2.38;;;1.10;;
11911;SDS011;6016;41.928;25.556;2023-03-11T09:41:24;1.55;;;1.10;;
11911;SDS011;6016;41.928;25.556;2023-03-11T09:44:14;1.75;;;1.10;;
11911;SDS011;6016;41.928;25.556;2023-03-11T09:46:50;4.43;;;1.35;;
11911;SDS011;6016;41.928;25.556;2023-03-11T09:49:47;1.95;;;1.05;;
11911;SDS011;6016;41.928;25.556;2023-03-11T09:52:32;2.00;;;1.05;;
11911;SDS011;6016;41.928;25.556;2023-03-11T09:55:06;0.88;;;0.63;;
11911;SDS011;6016;41.928;25.556;2023-03-11T09:57:49;1.17;;;1.08;;
11911;SDS011;6016;41.928;25.556;2023-03-11T10:00:19;4.53;;;2.20;;
11911;SDS011;6016;41.928;25.556;2023-03-11T10:02:49;3.03;;;1.15;;
11911;SDS011;6016;41.928;25.556;2023-03-11T10:05:19;2.25;;;0.90;;
11911;SDS011;6016;41.928;25.556;2023-03-11T10:07:50;2.28;;;1.05;;
11911;SDS011;6016;41.928;25.556;2023-03-11T10:10:23;1.08;;;0.98;;
11911;SDS011;6016;41.928;25.556;2023-03-11T10:12:57;0.70;;;0.70;;
11911;SDS011;6016;41.928;25.556;2023-03-11T10:15:32;1.17;;;0.80;;
11911;SDS011;6016;41.928;25.556;2023-03-11T10:21:08;0.90;;;0.80;;
11911;SDS011;6016;41.928;25.556;2023-03-11T10:23:46;3.45;;;1.00;;
11911;SDS011;6016;41.928;25.556;2023-03-11T10:26:30;0.80;;;0.77;;
11911;SDS011;6016;41.928;25.556;2023-03-11T10:29:01;2.90;;;1.45;;
11911;SDS011;6016;41.928;25.556;2023-03-11T10:31:34;1.50;;;1.00;;
11911;SDS011;6016;41.928;25.556;2023-03-11T10:34:05;3.25;;;1.48;;
11911;SDS011;6016;41.928;25.556;2023-03-11T10:36:41;6.13;;;2.33;;
11911;SDS011;6016;41.928;25.556;2023-03-11T10:39:15;3.53;;;2.38;;
11911;SDS011;6016;41.928;25.556;2023-03-11T10:41:43;6.28;;;1.83;;
11911;SDS011;6016;41.928;25.556;2023-03-11T10:44:16;6.47;;;3.38;;
11911;SDS011;6016;41.928;25.556;2023-03-11T10:49:15;2.35;;;0.80;;
11911;SDS011;6016;41.928;25.556;2023-03-11T10:51:46;0.90;;;0.80;;
11911;SDS011;6016;41.928;25.556;2023-03-11T10:54:22;2.08;;;0.70;;
11911;SDS011;6016;41.928;25.556;2023-03-11T10:56:53;2.63;;;1.00;;
11911;SDS011;6016;41.928;25.556;2023-03-11T10:59:27;1.65;;;0.95;;
11911;SDS011;6016;41.928;25.556;2023-03-11T11:01:56;1.05;;;0.60;;
11911;SDS011;6016;41.928;25.556;2023-03-11T11:04:27;1.67;;;0.70;;
11911;SDS011;6016;41.928;25.556;2023-03-11T11:06:57;1.02;;;0.80;;
11911;SDS011;6016;41.928;25.556;2023-03-11T11:09:24;1.25;;;0.93;;
11911;SDS011;6016;41.928;25.556;2023-03-11T11:12:02;4.85;;;0.70;;
11911;SDS011;6016;41.928;25.556;2023-03-11T11:14:46;0.77;;;0.75;;
11911;SDS011;6016;41.928;25.556;2023-03-11T11:17:18;3.05;;;1.33;;
11911;SDS011;6016;41.928;25.556;2023-03-11T11:19:48;1.27;;;1.10;;
11911;SDS011;6016;41.928;25.556;2023-03-11T11:22:19;3.92;;;2.45;;
11911;SDS011;6016;41.928;25.556;2023-03-11T11:24:48;1.10;;;0.90;;
11911;SDS011;6016;41.928;25.556;2023-03-11T11:27:16;4.15;;;1.00;;
11911;SDS011;6016;41.928;25.556;2023-03-11T11:29:46;3.00;;;0.85;;
11911;SDS011;6016;41.928;25.556;2023-03-11T11:32:16;2.47;;;1.00;;
11911;SDS011;6016;41.928;25.556;2023-03-11T11:34:52;3.38;;;1.60;;
11911;SDS011;6016;41.928;25.556;2023-03-11T11:37:23;3.17;;;1.67;;
11911;SDS011;6016;41.928;25.556;2023-03-11T11:39:57;5.63;;;3.40;;
11911;SDS011;6016;41.928;25.556;2023-03-11T11:42:33;1.75;;;1.40;;
11911;SDS011;6016;41.928;25.556;2023-03-11T11:45:01;2.47;;;1.60;;
11911;SDS011;6016;41.928;25.556;2023-03-11T11:50:00;1.60;;;1.50;;
11911;SDS011;6016;41.928;25.556;2023-03-11T11:52:31;1.40;;;1.30;;
11911;SDS011;6016;41.928;25.556;2023-03-11T11:55:04;1.10;;;1.00;;
11911;SDS011;6016;41.928;25.556;2023-03-11T11:57:41;0.80;;;0.80;;
11911;SDS011;6016;41.928;25.556;2023-03-11T12:00:12;1.70;;;1.10;;
11911;SDS011;6016;41.928;25.556;2023-03-11T12:02:45;3.13;;;1.80;;
11911;SDS011;6016;41.928;25.556;2023-03-11T12:05:24;1.98;;;1.40;;
11911;SDS011;6016;41.928;25.556;2023-03-11T12:08:01;1.60;;;1.10;;
11911;SDS011;6016;41.928;25.556;2023-03-11T12:10:36;3.00;;;1.00;;
11911;SDS011;6016;41.928;25.556;2023-03-11T12:13:35;4.22;;;2.05;;
11911;SDS011;6016;41.928;25.556;2023-03-11T12:16:25;4.40;;;1.35;;
11911;SDS011;6016;41.928;25.556;2023-03-11T12:19:02;3.28;;;1.75;;
11911;SDS011;6016;41.928;25.556;2023-03-11T12:21:41;2.67;;;1.70;;
11911;SDS011;6016;41.928;25.556;2023-03-11T12:24:30;2.75;;;1.80;;
11911;SDS011;6016;41.928;25.556;2023-03-11T12:27:17;5.43;;;2.67;;
11911;SDS011;6016;41.928;25.556;2023-03-11T12:29:48;2.97;;;1.50;;
11911;SDS011;6016;41.928;25.556;2023-03-11T12:32:21;3.85;;;3.25;;
11911;SDS011;6016;41.928;25.556;2023-03-11T12:34:50;2.35;;;1.02;;
11911;SDS011;6016;41.928;25.556;2023-03-11T12:37:17;1.23;;;1.13;;
11911;SDS011;6016;41.928;25.556;2023-03-11T12:39:49;2.28;;;1.35;;
11911;SDS011;6016;41.928;25.556;2023-03-11T12:42:17;2.45;;;1.00;;
11911;SDS011;6016;41.928;25.556;2023-03-11T12:44:46;1.73;;;1.60;;
11911;SDS011;6016;41.928;25.556;2023-03-11T12:47:22;1.23;;;1.13;;
11911;SDS011;6016;41.928;25.556;2023-03-11T12:49:51;1.70;;;1.23;;
11911;SDS011;6016;41.928;25.556;2023-03-11T12:52:21;4.20;;;2.72;;
11911;SDS011;6016;41.928;25.556;2023-03-11T13:01:09;1.67;;;1.13;;
11911;SDS011;6016;41.928;25.556;2023-03-11T13:10:10;1.05;;;0.93;;
11911;SDS011;6016;41.928;25.556;2023-03-11T13:12:42;3.50;;;1.05;;
11911;SDS011;6016;41.928;25.556;2023-03-11T13:15:27;2.00;;;1.10;;
11911;SDS011;6016;41.928;25.556;2023-03-11T13:18:02;2.95;;;1.30;;
11911;SDS011;6016;41.928;25.556;2023-03-11T13:20:50;1.20;;;1.02;;
11911;SDS011;6016;41.928;25.556;2023-03-11T13:23:31;2.85;;;1.10;;
11911;SDS011;6016;41.928;25.556;2023-03-11T13:29:15;1.85;;;1.00;;
11911;SDS011;6016;41.928;25.556;2023-03-11T13:35:09;0.80;;;0.80;;
11911;SDS011;6016;41.928;25.556;2023-03-11T13:37:56;0.80;;;0.80;;
11911;SDS011;6016;41.928;25.556;2023-03-11T13:40:39;0.90;;;0.80;;
11911;SDS011;6016;41.928;25.556;2023-03-11T13:43:08;0.90;;;0.85;;
11911;SDS011;6016;41.928;25.556;2023-03-11T13:45:39;2.80;;;0.82;;
11911;SDS011;6016;41.928;25.556;2023-03-11T13:48:12;1.20;;;0.90;;
11911;SDS011;6016;41.928;25.556;2023-03-11T13:50:42;0.88;;;0.88;;
11911;SDS011;6016;41.928;25.556;2023-03-11T13:53:15;1.25;;;0.80;;
11911;SDS011;6016;41.928;25.556;2023-03-11T13:55:45;0.83;;;0.80;;
11911;SDS011;6016;41.928;25.556;2023-03-11T13:58:13;1.10;;;0.90;;
11911;SDS011;6016;41.928;25.556;2023-03-11T14:00:47;3.03;;;1.00;;
11911;SDS011;6016;41.928;25.556;2023-03-11T14:03:16;1.30;;;1.10;;
11911;SDS011;6016;41.928;25.556;2023-03-11T14:05:47;1.23;;;1.10;;
11911;SDS011;6016;41.928;25.556;2023-03-11T14:08:18;1.40;;;1.00;;
11911;SDS011;6016;41.928;25.556;2023-03-11T14:10:50;1.50;;;1.10;;
11911;SDS011;6016;41.928;25.556;2023-03-11T14:13:18;2.38;;;1.10;;
11911;SDS011;6016;41.928;25.556;2023-03-11T14:15:50;3.28;;;1.50;;
11911;SDS011;6016;41.928;25.556;2023-03-11T14:18:30;1.85;;;1.30;;
11911;SDS011;6016;41.928;25.556;2023-03-11T14:21:01;3.30;;;2.10;;
11911;SDS011;6016;41.928;25.556;2023-03-11T14:23:32;5.30;;;2.95;;
11911;SDS011;6016;41.928;25.556;2023-03-11T14:26:01;4.45;;;3.40;;
11911;SDS011;6016;41.928;25.556;2023-03-11T14:28:32;3.38;;;2.40;;
11911;SDS011;6016;41.928;25.556;2023-03-11T14:31:04;4.10;;;2.45;;
11911;SDS011;6016;41.928;25.556;2023-03-11T14:33:31;2.03;;;1.70;;
11911;SDS011;6016;41.928;25.556;2023-03-11T14:35:59;4.15;;;1.80;;
11911;SDS011;6016;41.928;25.556;2023-03-11T14:38:29;1.08;;;1.00;;
11911;SDS011;6016;41.928;25.556;2023-03-11T14:40:58;3.75;;;1.20;;
11911;SDS011;6016;41.928;25.556;2023-03-11T14:43:26;0.90;;;0.90;;
11911;SDS011;6016;41.928;25.556;2023-03-11T14:45:57;1.75;;;1.23;;
11911;SDS011;6016;41.928;25.556;2023-03-11T14:48:27;2.38;;;1.27;;
11911;SDS011;6016;41.928;25.556;2023-03-11T14:50:58;1.40;;;1.00;;
11911;SDS011;6016;41.928;25.556;2023-03-11T14:53:27;1.20;;;1.02;;
11911;SDS011;6016;41.928;25.556;2023-03-11T14:55:59;1.10;;;1.00;;
11911;SDS011;6016;41.928;25.556;2023-03-11T14:58:29;2.67;;;1.20;;
11911;SDS011;6016;41.928;25.556;2023-03-11T15:01:00;2.45;;;1.40;;
11911;SDS011;6016;41.928;25.556;2023-03-11T15:03:32;2.95;;;1.50;;
11911;SDS011;6016;41.928;25.556;2023-03-11T15:06:04;3.20;;;2.30;;
11911;SDS011;6016;41.928;25.556;2023-03-11T15:08:34;1.25;;;1.10;;
11911;SDS011;6016;41.928;25.556;2023-03-11T15:11:12;2.28;;;1.40;;
11911;SDS011;6016;41.928;25.556;2023-03-11T15:13:45;1.73;;;1.30;;
11911;SDS011;6016;41.928;25.556;2023-03-11T15:16:22;6.70;;;3.75;;
11911;SDS011;6016;41.928;25.556;2023-03-11T15:18:55;1.88;;;1.30;;
11911;SDS011;6016;41.928;25.556;2023-03-11T15:21:24;2.35;;;1.52;;
11911;SDS011;6016;41.928;25.556;2023-03-11T15:23:51;5.05;;;2.20;;
11911;SDS011;6016;41.928;25.556;2023-03-11T15:26:26;4.85;;;2.00;;
11911;SDS011;6016;41.928;25.556;2023-03-11T15:28:55;2.45;;;1.65;;
11911;SDS011;6016;41.928;25.556;2023-03-11T15:31:31;2.78;;;1.70;;
11911;SDS011;6016;41.928;25.556;2023-03-11T15:34:18;3.90;;;1.83;;
11911;SDS011;6016;41.928;25.556;2023-03-11T15:37:14;6.38;;;2.70;;
11911;SDS011;6016;41.928;25.556;2023-03-11T15:39:46;5.43;;;2.70;;
11911;SDS011;6016;41.928;25.556;2023-03-11T15:42:17;4.78;;;2.47;;